East Springfield, New York
Current Conditions -  °F | °C
As of 1:55 AM on Thursday 23 Oct 2014 (Local Time) from KNY0 Reporting Station
Overcast Overcast  
Wind Chill: 47°   Ceiling: 2700
Heat Index: 47°   Visibility: 10mi
Dew Point: 43°   Wind: 0mph
Humidity: 84%   Direction: NA
Pressure: 29.94"   Gusts: NA
Location:  42.83°N, 74.82°W
Report Text: KNY0 230555Z AUTO 00000KT 10SM OVC027 09/06 A2994 RMK AO2 P0002 60005 T00850060 10094 20080 401110080
Loading
Personal Weather Stations






























Interactive Weather Map
Tropical Storm Tracking
New forecast layout! Learn more

10-Day Weather Forecast

Advertisements
Track Severe Weather on mobile